sensor_id;sensor_type;location;lat;lon;timestamp;P1;durP1;ratioP1;P2;durP2;ratioP2
63738;SDS011;68816;45.558;10.070;2023-07-20T00:01:40;16.10;;;10.13;;
63738;SDS011;68816;45.558;10.070;2023-07-20T00:04:06;15.15;;;9.57;;
63738;SDS011;68816;45.558;10.070;2023-07-20T00:06:31;15.50;;;10.88;;
63738;SDS011;68816;45.558;10.070;2023-07-20T00:08:56;15.98;;;9.68;;
63738;SDS011;68816;45.558;10.070;2023-07-20T00:11:25;17.10;;;9.45;;
63738;SDS011;68816;45.558;10.070;2023-07-20T00:13:52;14.52;;;6.97;;
63738;SDS011;68816;45.558;10.070;2023-07-20T00:16:17;14.00;;;8.02;;
63738;SDS011;68816;45.558;10.070;2023-07-20T00:18:43;16.58;;;10.18;;
63738;SDS011;68816;45.558;10.070;2023-07-20T00:21:08;20.10;;;10.88;;
63738;SDS011;68816;45.558;10.070;2023-07-20T00:23:34;14.93;;;10.13;;
63738;SDS011;68816;45.558;10.070;2023-07-20T00:26:00;13.70;;;9.68;;
63738;SDS011;68816;45.558;10.070;2023-07-20T00:28:25;12.15;;;8.93;;
63738;SDS011;68816;45.558;10.070;2023-07-20T00:30:51;16.08;;;9.35;;
63738;SDS011;68816;45.558;10.070;2023-07-20T00:33:17;16.33;;;9.70;;
63738;SDS011;68816;45.558;10.070;2023-07-20T00:35:43;17.38;;;10.18;;
63738;SDS011;68816;45.558;10.070;2023-07-20T00:38:08;15.43;;;11.02;;
63738;SDS011;68816;45.558;10.070;2023-07-20T00:40:37;16.45;;;10.68;;
63738;SDS011;68816;45.558;10.070;2023-07-20T00:43:04;14.32;;;10.23;;
63738;SDS011;68816;45.558;10.070;2023-07-20T00:45:30;18.35;;;11.18;;
63738;SDS011;68816;45.558;10.070;2023-07-20T00:47:56;19.13;;;11.18;;
63738;SDS011;68816;45.558;10.070;2023-07-20T00:50:23;17.92;;;11.93;;
63738;SDS011;68816;45.558;10.070;2023-07-20T00:52:49;17.67;;;12.40;;
63738;SDS011;68816;45.558;10.070;2023-07-20T00:55:15;18.70;;;11.73;;
63738;SDS011;68816;45.558;10.070;2023-07-20T00:57:40;18.25;;;11.95;;
63738;SDS011;68816;45.558;10.070;2023-07-20T01:00:06;21.85;;;13.57;;
63738;SDS011;68816;45.558;10.070;2023-07-20T01:02:32;20.17;;;12.57;;
63738;SDS011;68816;45.558;10.070;2023-07-20T01:04:58;16.75;;;12.57;;
63738;SDS011;68816;45.558;10.070;2023-07-20T01:07:25;15.63;;;11.82;;
63738;SDS011;68816;45.558;10.070;2023-07-20T01:10:01;18.77;;;11.68;;
63738;SDS011;68816;45.558;10.070;2023-07-20T01:15:07;18.65;;;11.82;;
63738;SDS011;68816;45.558;10.070;2023-07-20T01:17:34;20.77;;;12.25;;
63738;SDS011;68816;45.558;10.070;2023-07-20T01:20:00;14.55;;;11.30;;
63738;SDS011;68816;45.558;10.070;2023-07-20T01:33:14;15.88;;;11.68;;
63738;SDS011;68816;45.558;10.070;2023-07-20T01:35:42;14.90;;;11.15;;
63738;SDS011;68816;45.558;10.070;2023-07-20T01:38:10;18.33;;;12.68;;
63738;SDS011;68816;45.558;10.070;2023-07-20T01:40:38;16.63;;;12.30;;
63738;SDS011;68816;45.558;10.070;2023-07-20T01:43:05;18.48;;;13.10;;
63738;SDS011;68816;45.558;10.070;2023-07-20T01:45:30;17.63;;;13.35;;
63738;SDS011;68816;45.558;10.070;2023-07-20T01:47:56;18.13;;;12.18;;
63738;SDS011;68816;45.558;10.070;2023-07-20T01:50:21;18.27;;;13.27;;
63738;SDS011;68816;45.558;10.070;2023-07-20T01:52:47;19.48;;;14.23;;
63738;SDS011;68816;45.558;10.070;2023-07-20T01:55:13;17.67;;;13.75;;
63738;SDS011;68816;45.558;10.070;2023-07-20T01:57:38;20.67;;;13.68;;
63738;SDS011;68816;45.558;10.070;2023-07-20T02:00:04;21.60;;;13.75;;
63738;SDS011;68816;45.558;10.070;2023-07-20T02:02:30;23.30;;;13.13;;
63738;SDS011;68816;45.558;10.070;2023-07-20T02:04:56;18.35;;;13.20;;
63738;SDS011;68816;45.558;10.070;2023-07-20T02:07:21;19.70;;;13.63;;
63738;SDS011;68816;45.558;10.070;2023-07-20T02:09:47;21.98;;;14.13;;
63738;SDS011;68816;45.558;10.070;2023-07-20T02:12:12;21.05;;;14.27;;
63738;SDS011;68816;45.558;10.070;2023-07-20T02:14:38;18.55;;;14.50;;
63738;SDS011;68816;45.558;10.070;2023-07-20T02:17:04;19.83;;;13.98;;
63738;SDS011;68816;45.558;10.070;2023-07-20T02:19:29;19.75;;;14.10;;
63738;SDS011;68816;45.558;10.070;2023-07-20T02:21:55;23.35;;;14.32;;
63738;SDS011;68816;45.558;10.070;2023-07-20T02:24:21;22.02;;;14.75;;
63738;SDS011;68816;45.558;10.070;2023-07-20T02:26:46;20.60;;;14.95;;
63738;SDS011;68816;45.558;10.070;2023-07-20T02:29:12;23.77;;;14.98;;
63738;SDS011;68816;45.558;10.070;2023-07-20T02:31:37;20.30;;;14.23;;
63738;SDS011;68816;45.558;10.070;2023-07-20T02:34:05;20.63;;;15.05;;
63738;SDS011;68816;45.558;10.070;2023-07-20T02:36:31;23.95;;;15.45;;
63738;SDS011;68816;45.558;10.070;2023-07-20T02:38:59;17.45;;;15.18;;
63738;SDS011;68816;45.558;10.070;2023-07-20T02:41:26;23.83;;;15.45;;
63738;SDS011;68816;45.558;10.070;2023-07-20T02:43:52;18.58;;;14.57;;
63738;SDS011;68816;45.558;10.070;2023-07-20T02:46:17;22.88;;;15.10;;
63738;SDS011;68816;45.558;10.070;2023-07-20T02:48:43;22.48;;;15.65;;
63738;SDS011;68816;45.558;10.070;2023-07-20T02:51:08;24.52;;;15.23;;
63738;SDS011;68816;45.558;10.070;2023-07-20T02:53:34;22.60;;;16.02;;
63738;SDS011;68816;45.558;10.070;2023-07-20T02:56:00;19.83;;;15.02;;
63738;SDS011;68816;45.558;10.070;2023-07-20T02:58:25;20.77;;;15.35;;
63738;SDS011;68816;45.558;10.070;2023-07-20T03:00:50;23.52;;;16.77;;
63738;SDS011;68816;45.558;10.070;2023-07-20T03:03:16;25.52;;;16.17;;
63738;SDS011;68816;45.558;10.070;2023-07-20T03:05:41;22.65;;;15.60;;
63738;SDS011;68816;45.558;10.070;2023-07-20T03:08:07;22.77;;;16.25;;
63738;SDS011;68816;45.558;10.070;2023-07-20T03:10:38;25.98;;;17.08;;
63738;SDS011;68816;45.558;10.070;2023-07-20T03:13:06;22.90;;;15.32;;
63738;SDS011;68816;45.558;10.070;2023-07-20T03:15:32;24.85;;;16.70;;
63738;SDS011;68816;45.558;10.070;2023-07-20T03:17:59;22.17;;;16.38;;
63738;SDS011;68816;45.558;10.070;2023-07-20T03:20:24;27.05;;;17.70;;
63738;SDS011;68816;45.558;10.070;2023-07-20T03:22:50;30.88;;;17.67;;
63738;SDS011;68816;45.558;10.070;2023-07-20T03:25:15;27.73;;;16.48;;
63738;SDS011;68816;45.558;10.070;2023-07-20T03:27:42;22.00;;;16.75;;
63738;SDS011;68816;45.558;10.070;2023-07-20T03:30:08;21.75;;;16.63;;
63738;SDS011;68816;45.558;10.070;2023-07-20T03:32:34;23.33;;;16.88;;
63738;SDS011;68816;45.558;10.070;2023-07-20T03:35:00;23.73;;;17.42;;
63738;SDS011;68816;45.558;10.070;2023-07-20T03:37:26;23.13;;;16.65;;
63738;SDS011;68816;45.558;10.070;2023-07-20T03:39:51;23.30;;;17.25;;
63738;SDS011;68816;45.558;10.070;2023-07-20T03:42:17;23.25;;;16.40;;
63738;SDS011;68816;45.558;10.070;2023-07-20T03:44:42;24.63;;;16.67;;
63738;SDS011;68816;45.558;10.070;2023-07-20T03:47:08;23.45;;;17.20;;
63738;SDS011;68816;45.558;10.070;2023-07-20T03:49:34;25.27;;;17.40;;
63738;SDS011;68816;45.558;10.070;2023-07-20T03:52:00;26.95;;;17.85;;
63738;SDS011;68816;45.558;10.070;2023-07-20T03:54:28;23.52;;;17.00;;
63738;SDS011;68816;45.558;10.070;2023-07-20T03:56:54;26.15;;;18.98;;
63738;SDS011;68816;45.558;10.070;2023-07-20T03:59:19;30.20;;;18.40;;
63738;SDS011;68816;45.558;10.070;2023-07-20T04:01:45;26.20;;;17.98;;
63738;SDS011;68816;45.558;10.070;2023-07-20T04:04:11;28.52;;;17.27;;
63738;SDS011;68816;45.558;10.070;2023-07-20T04:06:37;24.98;;;18.30;;
63738;SDS011;68816;45.558;10.070;2023-07-20T04:09:03;28.05;;;19.17;;
63738;SDS011;68816;45.558;10.070;2023-07-20T04:11:30;27.90;;;19.23;;
63738;SDS011;68816;45.558;10.070;2023-07-20T04:13:55;24.80;;;17.27;;
63738;SDS011;68816;45.558;10.070;2023-07-20T04:16:21;25.00;;;17.70;;
63738;SDS011;68816;45.558;10.070;2023-07-20T04:18:47;26.42;;;18.98;;
63738;SDS011;68816;45.558;10.070;2023-07-20T04:21:12;28.88;;;19.00;;
63738;SDS011;68816;45.558;10.070;2023-07-20T04:23:38;23.30;;;17.20;;
63738;SDS011;68816;45.558;10.070;2023-07-20T04:26:03;25.60;;;18.63;;
63738;SDS011;68816;45.558;10.070;2023-07-20T04:28:29;28.00;;;20.05;;
63738;SDS011;68816;45.558;10.070;2023-07-20T04:30:55;26.70;;;18.50;;
63738;SDS011;68816;45.558;10.070;2023-07-20T04:33:34;25.23;;;18.75;;
63738;SDS011;68816;45.558;10.070;2023-07-20T04:36:00;24.27;;;19.05;;
63738;SDS011;68816;45.558;10.070;2023-07-20T04:38:25;27.95;;;19.05;;
63738;SDS011;68816;45.558;10.070;2023-07-20T04:40:51;26.38;;;17.40;;
63738;SDS011;68816;45.558;10.070;2023-07-20T04:43:17;28.23;;;19.33;;
63738;SDS011;68816;45.558;10.070;2023-07-20T04:45:43;27.48;;;18.88;;
63738;SDS011;68816;45.558;10.070;2023-07-20T04:48:09;28.17;;;19.48;;
63738;SDS011;68816;45.558;10.070;2023-07-20T04:50:38;28.08;;;19.83;;
63738;SDS011;68816;45.558;10.070;2023-07-20T04:53:05;28.92;;;20.08;;
63738;SDS011;68816;45.558;10.070;2023-07-20T04:55:30;28.85;;;20.08;;
63738;SDS011;68816;45.558;10.070;2023-07-20T04:57:58;31.05;;;20.60;;
63738;SDS011;68816;45.558;10.070;2023-07-20T05:00:25;26.77;;;20.38;;
63738;SDS011;68816;45.558;10.070;2023-07-20T05:02:50;28.65;;;21.67;;
63738;SDS011;68816;45.558;10.070;2023-07-20T05:05:16;30.75;;;21.48;;
63738;SDS011;68816;45.558;10.070;2023-07-20T05:07:41;32.78;;;22.20;;
63738;SDS011;68816;45.558;10.070;2023-07-20T05:10:07;35.85;;;24.30;;
63738;SDS011;68816;45.558;10.070;2023-07-20T05:12:33;33.15;;;23.38;;
63738;SDS011;68816;45.558;10.070;2023-07-20T05:14:58;32.35;;;24.00;;
63738;SDS011;68816;45.558;10.070;2023-07-20T05:17:24;35.08;;;23.80;;
63738;SDS011;68816;45.558;10.070;2023-07-20T05:19:50;34.75;;;23.65;;
63738;SDS011;68816;45.558;10.070;2023-07-20T05:22:16;40.22;;;25.90;;
63738;SDS011;68816;45.558;10.070;2023-07-20T05:24:42;35.67;;;26.05;;
63738;SDS011;68816;45.558;10.070;2023-07-20T05:27:08;38.42;;;25.98;;
63738;SDS011;68816;45.558;10.070;2023-07-20T05:29:33;35.20;;;26.35;;
63738;SDS011;68816;45.558;10.070;2023-07-20T05:31:59;38.60;;;26.60;;
63738;SDS011;68816;45.558;10.070;2023-07-20T05:34:24;37.63;;;25.80;;
63738;SDS011;68816;45.558;10.070;2023-07-20T05:36:49;36.33;;;27.05;;
63738;SDS011;68816;45.558;10.070;2023-07-20T05:39:18;37.58;;;26.70;;
63738;SDS011;68816;45.558;10.070;2023-07-20T05:41:43;33.55;;;24.98;;
63738;SDS011;68816;45.558;10.070;2023-07-20T05:44:09;35.00;;;24.60;;
63738;SDS011;68816;45.558;10.070;2023-07-20T05:46:34;33.28;;;23.92;;
63738;SDS011;68816;45.558;10.070;2023-07-20T05:49:00;34.70;;;23.92;;
63738;SDS011;68816;45.558;10.070;2023-07-20T05:51:26;28.10;;;19.63;;
63738;SDS011;68816;45.558;10.070;2023-07-20T05:53:52;33.47;;;22.10;;
63738;SDS011;68816;45.558;10.070;2023-07-20T05:56:18;25.13;;;17.60;;
63738;SDS011;68816;45.558;10.070;2023-07-20T05:58:43;26.48;;;19.20;;
63738;SDS011;68816;45.558;10.070;2023-07-20T06:01:08;22.95;;;17.83;;
63738;SDS011;68816;45.558;10.070;2023-07-20T06:03:34;27.27;;;18.45;;
63738;SDS011;68816;45.558;10.070;2023-07-20T06:06:00;33.22;;;21.23;;
63738;SDS011;68816;45.558;10.070;2023-07-20T06:08:27;29.98;;;19.58;;
63738;SDS011;68816;45.558;10.070;2023-07-20T06:10:53;28.08;;;18.77;;
63738;SDS011;68816;45.558;10.070;2023-07-20T06:13:19;26.25;;;19.48;;
63738;SDS011;68816;45.558;10.070;2023-07-20T06:15:45;25.85;;;20.13;;
63738;SDS011;68816;45.558;10.070;2023-07-20T06:18:11;28.63;;;20.63;;
63738;SDS011;68816;45.558;10.070;2023-07-20T06:20:36;25.67;;;19.45;;
63738;SDS011;68816;45.558;10.070;2023-07-20T06:23:01;28.92;;;20.55;;
63738;SDS011;68816;45.558;10.070;2023-07-20T06:25:27;31.13;;;20.63;;
63738;SDS011;68816;45.558;10.070;2023-07-20T06:27:55;28.98;;;20.35;;
63738;SDS011;68816;45.558;10.070;2023-07-20T06:30:21;27.33;;;20.35;;
63738;SDS011;68816;45.558;10.070;2023-07-20T06:32:46;27.52;;;19.95;;
63738;SDS011;68816;45.558;10.070;2023-07-20T06:35:12;31.70;;;21.70;;
63738;SDS011;68816;45.558;10.070;2023-07-20T06:37:38;28.20;;;21.38;;
63738;SDS011;68816;45.558;10.070;2023-07-20T06:40:03;27.35;;;20.23;;
63738;SDS011;68816;45.558;10.070;2023-07-20T06:42:29;27.33;;;20.25;;
63738;SDS011;68816;45.558;10.070;2023-07-20T06:44:56;24.40;;;19.13;;
63738;SDS011;68816;45.558;10.070;2023-07-20T06:47:22;24.50;;;18.48;;
63738;SDS011;68816;45.558;10.070;2023-07-20T06:49:50;28.92;;;20.60;;
63738;SDS011;68816;45.558;10.070;2023-07-20T06:52:15;27.13;;;19.55;;
63738;SDS011;68816;45.558;10.070;2023-07-20T06:54:40;28.10;;;19.42;;
63738;SDS011;68816;45.558;10.070;2023-07-20T06:57:06;30.38;;;20.35;;
63738;SDS011;68816;45.558;10.070;2023-07-20T06:59:31;27.75;;;20.25;;
63738;SDS011;68816;45.558;10.070;2023-07-20T07:01:57;31.88;;;20.70;;
63738;SDS011;68816;45.558;10.070;2023-07-20T07:04:22;34.80;;;20.80;;
63738;SDS011;68816;45.558;10.070;2023-07-20T07:06:48;29.42;;;21.45;;
63738;SDS011;68816;45.558;10.070;2023-07-20T07:09:13;28.23;;;20.30;;
63738;SDS011;68816;45.558;10.070;2023-07-20T07:11:39;27.25;;;20.08;;
63738;SDS011;68816;45.558;10.070;2023-07-20T07:14:04;26.35;;;19.63;;
63738;SDS011;68816;45.558;10.070;2023-07-20T07:16:30;29.45;;;20.15;;
63738;SDS011;68816;45.558;10.070;2023-07-20T07:18:55;27.85;;;18.55;;
63738;SDS011;68816;45.558;10.070;2023-07-20T07:21:21;26.23;;;18.13;;
63738;SDS011;68816;45.558;10.070;2023-07-20T07:23:46;26.73;;;19.10;;
63738;SDS011;68816;45.558;10.070;2023-07-20T07:26:12;23.10;;;18.65;;
63738;SDS011;68816;45.558;10.070;2023-07-20T07:28:38;24.33;;;17.73;;
63738;SDS011;68816;45.558;10.070;2023-07-20T07:31:06;29.48;;;20.25;;
63738;SDS011;68816;45.558;10.070;2023-07-20T07:33:32;25.63;;;18.35;;
63738;SDS011;68816;45.558;10.070;2023-07-20T07:35:58;29.30;;;20.30;;
63738;SDS011;68816;45.558;10.070;2023-07-20T07:38:23;23.98;;;15.88;;
63738;SDS011;68816;45.558;10.070;2023-07-20T07:40:49;21.10;;;13.90;;
63738;SDS011;68816;45.558;10.070;2023-07-20T07:43:14;18.35;;;12.90;;
63738;SDS011;68816;45.558;10.070;2023-07-20T07:45:40;18.80;;;12.70;;
63738;SDS011;68816;45.558;10.070;2023-07-20T07:48:06;17.63;;;13.25;;
63738;SDS011;68816;45.558;10.070;2023-07-20T07:50:32;20.95;;;15.02;;
63738;SDS011;68816;45.558;10.070;2023-07-20T07:52:58;21.90;;;14.73;;
63738;SDS011;68816;45.558;10.070;2023-07-20T07:55:24;19.08;;;13.32;;
63738;SDS011;68816;45.558;10.070;2023-07-20T07:57:51;17.70;;;12.77;;
63738;SDS011;68816;45.558;10.070;2023-07-20T08:00:17;22.42;;;13.18;;
63738;SDS011;68816;45.558;10.070;2023-07-20T08:02:44;22.05;;;12.60;;
63738;SDS011;68816;45.558;10.070;2023-07-20T08:05:12;20.20;;;11.38;;
63738;SDS011;68816;45.558;10.070;2023-07-20T08:07:37;19.85;;;11.27;;
63738;SDS011;68816;45.558;10.070;2023-07-20T08:10:03;19.10;;;11.38;;
63738;SDS011;68816;45.558;10.070;2023-07-20T08:12:30;17.15;;;10.82;;
63738;SDS011;68816;45.558;10.070;2023-07-20T08:14:55;18.52;;;10.48;;
63738;SDS011;68816;45.558;10.070;2023-07-20T08:17:21;13.95;;;10.35;;
63738;SDS011;68816;45.558;10.070;2023-07-20T08:19:46;15.73;;;11.00;;
63738;SDS011;68816;45.558;10.070;2023-07-20T08:22:12;14.20;;;8.85;;
63738;SDS011;68816;45.558;10.070;2023-07-20T08:24:41;13.52;;;8.90;;
63738;SDS011;68816;45.558;10.070;2023-07-20T08:27:07;19.67;;;13.20;;
63738;SDS011;68816;45.558;10.070;2023-07-20T08:29:33;21.10;;;12.70;;
63738;SDS011;68816;45.558;10.070;2023-07-20T08:32:02;20.75;;;13.75;;
63738;SDS011;68816;45.558;10.070;2023-07-20T08:34:29;20.58;;;14.60;;
63738;SDS011;68816;45.558;10.070;2023-07-20T08:36:55;21.20;;;14.38;;
63738;SDS011;68816;45.558;10.070;2023-07-20T08:39:21;23.17;;;14.52;;
63738;SDS011;68816;45.558;10.070;2023-07-20T08:41:48;21.13;;;13.90;;
63738;SDS011;68816;45.558;10.070;2023-07-20T08:44:13;20.42;;;14.15;;
63738;SDS011;68816;45.558;10.070;2023-07-20T08:46:40;21.13;;;13.13;;
63738;SDS011;68816;45.558;10.070;2023-07-20T08:49:07;21.92;;;14.88;;
63738;SDS011;68816;45.558;10.070;2023-07-20T08:51:33;18.02;;;12.43;;
63738;SDS011;68816;45.558;10.070;2023-07-20T08:54:01;18.25;;;13.27;;
63738;SDS011;68816;45.558;10.070;2023-07-20T08:56:27;26.13;;;15.98;;
63738;SDS011;68816;45.558;10.070;2023-07-20T08:58:56;20.38;;;15.80;;
63738;SDS011;68816;45.558;10.070;2023-07-20T09:01:22;20.50;;;14.73;;
63738;SDS011;68816;45.558;10.070;2023-07-20T09:03:48;17.98;;;13.93;;
63738;SDS011;68816;45.558;10.070;2023-07-20T09:06:14;22.95;;;13.27;;
63738;SDS011;68816;45.558;10.070;2023-07-20T09:08:41;19.48;;;14.68;;
63738;SDS011;68816;45.558;10.070;2023-07-20T09:11:07;19.50;;;13.75;;
63738;SDS011;68816;45.558;10.070;2023-07-20T09:13:35;22.08;;;14.18;;
63738;SDS011;68816;45.558;10.070;2023-07-20T09:16:02;21.52;;;15.02;;
63738;SDS011;68816;45.558;10.070;2023-07-20T09:18:30;19.30;;;14.27;;
63738;SDS011;68816;45.558;10.070;2023-07-20T09:21:03;21.00;;;14.30;;
63738;SDS011;68816;45.558;10.070;2023-07-20T09:23:33;22.80;;;15.45;;
63738;SDS011;68816;45.558;10.070;2023-07-20T09:26:00;20.45;;;15.50;;
63738;SDS011;68816;45.558;10.070;2023-07-20T09:28:41;24.25;;;15.20;;
63738;SDS011;68816;45.558;10.070;2023-07-20T09:31:20;21.15;;;14.48;;
63738;SDS011;68816;45.558;10.070;2023-07-20T09:33:47;18.45;;;14.52;;
63738;SDS011;68816;45.558;10.070;2023-07-20T09:36:13;21.02;;;14.38;;
63738;SDS011;68816;45.558;10.070;2023-07-20T09:38:40;21.38;;;15.85;;
63738;SDS011;68816;45.558;10.070;2023-07-20T09:41:06;21.10;;;14.98;;
63738;SDS011;68816;45.558;10.070;2023-07-20T09:43:33;20.27;;;15.38;;
63738;SDS011;68816;45.558;10.070;2023-07-20T09:45:59;21.67;;;14.68;;
63738;SDS011;68816;45.558;10.070;2023-07-20T09:48:25;21.13;;;16.25;;
63738;SDS011;68816;45.558;10.070;2023-07-20T09:50:56;21.40;;;14.68;;
63738;SDS011;68816;45.558;10.070;2023-07-20T09:53:22;21.58;;;15.90;;
63738;SDS011;68816;45.558;10.070;2023-07-20T09:55:50;21.17;;;14.23;;
63738;SDS011;68816;45.558;10.070;2023-07-20T09:58:17;16.85;;;13.95;;
63738;SDS011;68816;45.558;10.070;2023-07-20T10:00:43;17.98;;;13.20;;
63738;SDS011;68816;45.558;10.070;2023-07-20T10:03:16;18.13;;;13.73;;
63738;SDS011;68816;45.558;10.070;2023-07-20T10:05:46;18.27;;;14.45;;
63738;SDS011;68816;45.558;10.070;2023-07-20T10:08:17;20.23;;;15.60;;
63738;SDS011;68816;45.558;10.070;2023-07-20T10:10:45;21.40;;;14.57;;
63738;SDS011;68816;45.558;10.070;2023-07-20T10:13:21;19.17;;;14.60;;
63738;SDS011;68816;45.558;10.070;2023-07-20T10:16:01;20.42;;;13.80;;
63738;SDS011;68816;45.558;10.070;2023-07-20T10:18:30;23.73;;;16.05;;
63738;SDS011;68816;45.558;10.070;2023-07-20T10:21:00;20.55;;;13.07;;
63738;SDS011;68816;45.558;10.070;2023-07-20T10:23:28;24.77;;;17.13;;
63738;SDS011;68816;45.558;10.070;2023-07-20T10:25:55;19.35;;;14.00;;
63738;SDS011;68816;45.558;10.070;2023-07-20T10:28:22;20.17;;;14.55;;
63738;SDS011;68816;45.558;10.070;2023-07-20T10:30:49;18.42;;;14.40;;
63738;SDS011;68816;45.558;10.070;2023-07-20T10:33:15;24.60;;;14.60;;
63738;SDS011;68816;45.558;10.070;2023-07-20T10:35:52;23.08;;;15.90;;
63738;SDS011;68816;45.558;10.070;2023-07-20T10:38:18;21.95;;;15.98;;
63738;SDS011;68816;45.558;10.070;2023-07-20T10:40:43;20.58;;;13.60;;
63738;SDS011;68816;45.558;10.070;2023-07-20T10:43:19;19.42;;;14.25;;
63738;SDS011;68816;45.558;10.070;2023-07-20T10:45:49;18.00;;;12.98;;
63738;SDS011;68816;45.558;10.070;2023-07-20T10:48:19;16.35;;;12.65;;
63738;SDS011;68816;45.558;10.070;2023-07-20T10:53:41;19.95;;;13.10;;
63738;SDS011;68816;45.558;10.070;2023-07-20T10:56:13;21.40;;;13.27;;
63738;SDS011;68816;45.558;10.070;2023-07-20T10:58:40;21.10;;;14.07;;
63738;SDS011;68816;45.558;10.070;2023-07-20T11:01:07;18.73;;;12.07;;
63738;SDS011;68816;45.558;10.070;2023-07-20T11:03:34;19.65;;;12.07;;
63738;SDS011;68816;45.558;10.070;2023-07-20T11:08:48;18.33;;;12.73;;
63738;SDS011;68816;45.558;10.070;2023-07-20T11:11:20;23.50;;;14.90;;
63738;SDS011;68816;45.558;10.070;2023-07-20T11:14:08;19.40;;;12.90;;
63738;SDS011;68816;45.558;10.070;2023-07-20T11:16:38;17.88;;;13.88;;
63738;SDS011;68816;45.558;10.070;2023-07-20T11:21:41;18.15;;;12.65;;
63738;SDS011;68816;45.558;10.070;2023-07-20T11:24:07;18.15;;;12.35;;
63738;SDS011;68816;45.558;10.070;2023-07-20T11:26:44;17.05;;;12.77;;
63738;SDS011;68816;45.558;10.070;2023-07-20T11:29:21;17.67;;;11.73;;
63738;SDS011;68816;45.558;10.070;2023-07-20T11:31:48;18.42;;;11.70;;
63738;SDS011;68816;45.558;10.070;2023-07-20T11:34:15;15.25;;;11.40;;
63738;SDS011;68816;45.558;10.070;2023-07-20T11:36:43;16.10;;;11.63;;
63738;SDS011;68816;45.558;10.070;2023-07-20T11:39:09;19.50;;;12.13;;
63738;SDS011;68816;45.558;10.070;2023-07-20T11:41:36;16.88;;;11.10;;
63738;SDS011;68816;45.558;10.070;2023-07-20T11:44:03;13.90;;;11.77;;
63738;SDS011;68816;45.558;10.070;2023-07-20T11:46:31;18.08;;;11.98;;
63738;SDS011;68816;45.558;10.070;2023-07-20T11:49:00;16.20;;;11.02;;
63738;SDS011;68816;45.558;10.070;2023-07-20T11:51:29;20.02;;;11.38;;
63738;SDS011;68816;45.558;10.070;2023-07-20T11:53:55;26.33;;;11.70;;
63738;SDS011;68816;45.558;10.070;2023-07-20T11:56:22;16.77;;;11.85;;
63738;SDS011;68816;45.558;10.070;2023-07-20T11:58:49;17.48;;;12.70;;
63738;SDS011;68816;45.558;10.070;2023-07-20T12:01:15;16.77;;;11.38;;
63738;SDS011;68816;45.558;10.070;2023-07-20T12:03:44;15.43;;;10.90;;
63738;SDS011;68816;45.558;10.070;2023-07-20T12:06:09;16.67;;;11.07;;
63738;SDS011;68816;45.558;10.070;2023-07-20T12:08:39;16.90;;;11.05;;
63738;SDS011;68816;45.558;10.070;2023-07-20T12:11:06;20.58;;;12.25;;
63738;SDS011;68816;45.558;10.070;2023-07-20T12:13:36;15.38;;;11.45;;
63738;SDS011;68816;45.558;10.070;2023-07-20T12:16:15;13.63;;;11.02;;
63738;SDS011;68816;45.558;10.070;2023-07-20T12:18:44;16.92;;;10.75;;
63738;SDS011;68816;45.558;10.070;2023-07-20T12:21:10;18.42;;;10.10;;
63738;SDS011;68816;45.558;10.070;2023-07-20T12:23:39;19.63;;;10.77;;
63738;SDS011;68816;45.558;10.070;2023-07-20T12:26:06;14.93;;;10.13;;
63738;SDS011;68816;45.558;10.070;2023-07-20T12:28:35;15.23;;;9.80;;
63738;SDS011;68816;45.558;10.070;2023-07-20T12:31:03;18.63;;;10.95;;
63738;SDS011;68816;45.558;10.070;2023-07-20T12:33:29;17.23;;;9.57;;
63738;SDS011;68816;45.558;10.070;2023-07-20T12:35:54;14.68;;;10.50;;
63738;SDS011;68816;45.558;10.070;2023-07-20T12:38:21;16.30;;;10.07;;
63738;SDS011;68816;45.558;10.070;2023-07-20T12:40:47;16.90;;;10.93;;
63738;SDS011;68816;45.558;10.070;2023-07-20T12:43:13;12.68;;;8.93;;
63738;SDS011;68816;45.558;10.070;2023-07-20T12:45:39;14.30;;;8.88;;
63738;SDS011;68816;45.558;10.070;2023-07-20T12:48:04;14.98;;;9.55;;
63738;SDS011;68816;45.558;10.070;2023-07-20T12:50:30;16.23;;;9.73;;
63738;SDS011;68816;45.558;10.070;2023-07-20T12:52:55;16.35;;;10.07;;
63738;SDS011;68816;45.558;10.070;2023-07-20T12:55:21;17.35;;;11.57;;
63738;SDS011;68816;45.558;10.070;2023-07-20T12:57:46;15.00;;;10.18;;
63738;SDS011;68816;45.558;10.070;2023-07-20T13:00:13;15.50;;;9.75;;
63738;SDS011;68816;45.558;10.070;2023-07-20T13:02:39;15.93;;;11.05;;
63738;SDS011;68816;45.558;10.070;2023-07-20T13:05:06;15.60;;;10.88;;
63738;SDS011;68816;45.558;10.070;2023-07-20T13:07:36;17.90;;;10.68;;
63738;SDS011;68816;45.558;10.070;2023-07-20T13:10:03;13.45;;;9.98;;
63738;SDS011;68816;45.558;10.070;2023-07-20T13:12:30;19.17;;;10.25;;
63738;SDS011;68816;45.558;10.070;2023-07-20T13:14:57;15.15;;;9.73;;
63738;SDS011;68816;45.558;10.070;2023-07-20T13:17:28;16.58;;;10.15;;
63738;SDS011;68816;45.558;10.070;2023-07-20T13:19:54;14.90;;;9.48;;
63738;SDS011;68816;45.558;10.070;2023-07-20T13:22:19;21.15;;;8.02;;
63738;SDS011;68816;45.558;10.070;2023-07-20T13:24:45;15.38;;;8.38;;
63738;SDS011;68816;45.558;10.070;2023-07-20T13:27:13;11.88;;;8.00;;
63738;SDS011;68816;45.558;10.070;2023-07-20T13:29:42;15.80;;;7.72;;
63738;SDS011;68816;45.558;10.070;2023-07-20T13:32:08;12.07;;;7.68;;
63738;SDS011;68816;45.558;10.070;2023-07-20T13:34:34;11.48;;;7.50;;
63738;SDS011;68816;45.558;10.070;2023-07-20T13:36:59;12.02;;;7.30;;
63738;SDS011;68816;45.558;10.070;2023-07-20T13:39:25;12.07;;;7.15;;
63738;SDS011;68816;45.558;10.070;2023-07-20T13:41:53;11.18;;;6.90;;
63738;SDS011;68816;45.558;10.070;2023-07-20T13:44:21;13.57;;;6.85;;
63738;SDS011;68816;45.558;10.070;2023-07-20T13:46:47;10.40;;;6.82;;
63738;SDS011;68816;45.558;10.070;2023-07-20T13:49:13;11.23;;;6.57;;
63738;SDS011;68816;45.558;10.070;2023-07-20T13:51:39;10.57;;;6.10;;
63738;SDS011;68816;45.558;10.070;2023-07-20T13:54:06;10.07;;;6.43;;
63738;SDS011;68816;45.558;10.070;2023-07-20T13:56:31;11.13;;;6.50;;
63738;SDS011;68816;45.558;10.070;2023-07-20T13:58:57;11.30;;;7.13;;
63738;SDS011;68816;45.558;10.070;2023-07-20T14:01:22;10.55;;;6.85;;
63738;SDS011;68816;45.558;10.070;2023-07-20T14:03:49;12.30;;;7.00;;
63738;SDS011;68816;45.558;10.070;2023-07-20T14:06:15;15.30;;;7.47;;
63738;SDS011;68816;45.558;10.070;2023-07-20T14:08:41;10.75;;;7.70;;
63738;SDS011;68816;45.558;10.070;2023-07-20T14:11:07;12.48;;;6.97;;
63738;SDS011;68816;45.558;10.070;2023-07-20T14:13:32;14.07;;;7.30;;
63738;SDS011;68816;45.558;10.070;2023-07-20T14:15:58;12.45;;;7.25;;
63738;SDS011;68816;45.558;10.070;2023-07-20T14:18:23;15.05;;;9.00;;
63738;SDS011;68816;45.558;10.070;2023-07-20T14:20:49;14.15;;;8.25;;
63738;SDS011;68816;45.558;10.070;2023-07-20T14:23:14;16.15;;;8.73;;
63738;SDS011;68816;45.558;10.070;2023-07-20T14:25:40;10.82;;;8.63;;
63738;SDS011;68816;45.558;10.070;2023-07-20T14:28:07;16.23;;;9.45;;
63738;SDS011;68816;45.558;10.070;2023-07-20T14:30:32;15.80;;;8.77;;